sensor_id;sensor_type;location;lat;lon;timestamp;P1;durP1;ratioP1;P2;durP2;ratioP2
18140;SDS011;9196;49.194;12.526;2022-08-19T00:01:19;17.67;;;15.50;;
18140;SDS011;9196;49.194;12.526;2022-08-19T00:03:46;17.43;;;15.63;;
18140;SDS011;9196;49.194;12.526;2022-08-19T00:06:13;18.23;;;16.30;;
18140;SDS011;9196;49.194;12.526;2022-08-19T00:08:40;18.07;;;16.30;;
18140;SDS011;9196;49.194;12.526;2022-08-19T00:11:08;21.23;;;18.90;;
18140;SDS011;9196;49.194;12.526;2022-08-19T00:13:36;18.37;;;16.70;;
18140;SDS011;9196;49.194;12.526;2022-08-19T00:16:03;27.40;;;16.70;;
18140;SDS011;9196;49.194;12.526;2022-08-19T00:18:33;20.83;;;17.33;;
18140;SDS011;9196;49.194;12.526;2022-08-19T00:21:00;22.80;;;19.70;;
18140;SDS011;9196;49.194;12.526;2022-08-19T00:23:27;23.50;;;18.83;;
18140;SDS011;9196;49.194;12.526;2022-08-19T00:25:54;23.43;;;19.77;;
18140;SDS011;9196;49.194;12.526;2022-08-19T00:28:21;21.30;;;19.10;;
18140;SDS011;9196;49.194;12.526;2022-08-19T00:30:48;21.13;;;18.77;;
18140;SDS011;9196;49.194;12.526;2022-08-19T00:33:16;26.13;;;20.07;;
18140;SDS011;9196;49.194;12.526;2022-08-19T00:35:44;24.50;;;22.07;;
18140;SDS011;9196;49.194;12.526;2022-08-19T00:38:11;25.03;;;22.33;;
18140;SDS011;9196;49.194;12.526;2022-08-19T00:40:38;27.40;;;22.93;;
18140;SDS011;9196;49.194;12.526;2022-08-19T00:43:07;26.60;;;23.90;;
18140;SDS011;9196;49.194;12.526;2022-08-19T00:45:35;27.87;;;24.77;;
18140;SDS011;9196;49.194;12.526;2022-08-19T00:48:02;26.70;;;23.50;;
18140;SDS011;9196;49.194;12.526;2022-08-19T00:50:29;28.50;;;24.10;;
18140;SDS011;9196;49.194;12.526;2022-08-19T00:52:57;27.10;;;23.60;;
18140;SDS011;9196;49.194;12.526;2022-08-19T00:55:25;27.47;;;24.60;;
18140;SDS011;9196;49.194;12.526;2022-08-19T00:57:54;31.87;;;24.70;;
18140;SDS011;9196;49.194;12.526;2022-08-19T01:00:26;25.77;;;21.83;;
18140;SDS011;9196;49.194;12.526;2022-08-19T01:02:55;30.10;;;23.77;;
18140;SDS011;9196;49.194;12.526;2022-08-19T01:05:24;24.60;;;22.10;;
18140;SDS011;9196;49.194;12.526;2022-08-19T01:07:53;34.60;;;26.17;;
18140;SDS011;9196;49.194;12.526;2022-08-19T01:10:24;28.67;;;25.70;;
18140;SDS011;9196;49.194;12.526;2022-08-19T01:12:53;28.97;;;25.83;;
18140;SDS011;9196;49.194;12.526;2022-08-19T01:15:21;29.33;;;24.23;;
18140;SDS011;9196;49.194;12.526;2022-08-19T01:17:51;29.13;;;26.20;;
18140;SDS011;9196;49.194;12.526;2022-08-19T01:20:21;28.17;;;24.77;;
18140;SDS011;9196;49.194;12.526;2022-08-19T01:22:50;32.20;;;25.60;;
18140;SDS011;9196;49.194;12.526;2022-08-19T01:25:20;29.93;;;26.67;;
18140;SDS011;9196;49.194;12.526;2022-08-19T01:27:50;28.90;;;25.37;;
18140;SDS011;9196;49.194;12.526;2022-08-19T01:30:19;26.67;;;23.70;;
18140;SDS011;9196;49.194;12.526;2022-08-19T01:32:47;26.20;;;23.53;;
18140;SDS011;9196;49.194;12.526;2022-08-19T01:35:15;28.77;;;25.87;;
18140;SDS011;9196;49.194;12.526;2022-08-19T01:37:44;31.50;;;25.53;;
18140;SDS011;9196;49.194;12.526;2022-08-19T01:40:15;32.43;;;28.10;;
18140;SDS011;9196;49.194;12.526;2022-08-19T01:42:45;35.73;;;29.57;;
18140;SDS011;9196;49.194;12.526;2022-08-19T01:45:12;35.27;;;31.03;;
18140;SDS011;9196;49.194;12.526;2022-08-19T01:47:40;39.97;;;30.90;;
18140;SDS011;9196;49.194;12.526;2022-08-19T01:50:07;33.50;;;27.53;;
18140;SDS011;9196;49.194;12.526;2022-08-19T01:52:35;35.27;;;30.27;;
18140;SDS011;9196;49.194;12.526;2022-08-19T01:55:03;42.10;;;30.50;;
18140;SDS011;9196;49.194;12.526;2022-08-19T01:57:32;41.13;;;34.20;;
18140;SDS011;9196;49.194;12.526;2022-08-19T01:59:59;39.47;;;34.53;;
18140;SDS011;9196;49.194;12.526;2022-08-19T02:02:28;42.60;;;34.30;;
18140;SDS011;9196;49.194;12.526;2022-08-19T02:04:55;35.97;;;30.90;;
18140;SDS011;9196;49.194;12.526;2022-08-19T02:07:21;35.40;;;31.73;;
18140;SDS011;9196;49.194;12.526;2022-08-19T02:09:49;34.47;;;30.87;;
18140;SDS011;9196;49.194;12.526;2022-08-19T02:12:16;38.43;;;34.20;;
18140;SDS011;9196;49.194;12.526;2022-08-19T02:14:44;34.90;;;30.10;;
18140;SDS011;9196;49.194;12.526;2022-08-19T02:17:10;36.77;;;30.00;;
18140;SDS011;9196;49.194;12.526;2022-08-19T02:19:37;32.63;;;29.23;;
18140;SDS011;9196;49.194;12.526;2022-08-19T02:22:04;35.77;;;31.80;;
18140;SDS011;9196;49.194;12.526;2022-08-19T02:24:31;37.73;;;33.63;;
18140;SDS011;9196;49.194;12.526;2022-08-19T02:26:58;38.33;;;33.63;;
18140;SDS011;9196;49.194;12.526;2022-08-19T02:29:24;42.53;;;34.70;;
18140;SDS011;9196;49.194;12.526;2022-08-19T02:31:53;40.60;;;35.27;;
18140;SDS011;9196;49.194;12.526;2022-08-19T02:34:19;41.70;;;36.33;;
18140;SDS011;9196;49.194;12.526;2022-08-19T02:36:46;41.57;;;35.63;;
18140;SDS011;9196;49.194;12.526;2022-08-19T02:39:13;38.53;;;33.87;;
18140;SDS011;9196;49.194;12.526;2022-08-19T02:41:39;40.13;;;35.70;;
18140;SDS011;9196;49.194;12.526;2022-08-19T02:44:06;37.27;;;31.33;;
18140;SDS011;9196;49.194;12.526;2022-08-19T02:46:33;38.60;;;34.00;;
18140;SDS011;9196;49.194;12.526;2022-08-19T02:49:03;36.63;;;32.20;;
18140;SDS011;9196;49.194;12.526;2022-08-19T02:51:32;41.60;;;32.37;;
18140;SDS011;9196;49.194;12.526;2022-08-19T02:54:01;38.57;;;34.40;;
18140;SDS011;9196;49.194;12.526;2022-08-19T02:56:29;35.03;;;31.23;;
18140;SDS011;9196;49.194;12.526;2022-08-19T02:58:56;36.83;;;32.73;;
18140;SDS011;9196;49.194;12.526;2022-08-19T03:01:25;37.53;;;31.97;;
18140;SDS011;9196;49.194;12.526;2022-08-19T03:03:54;33.20;;;29.77;;
18140;SDS011;9196;49.194;12.526;2022-08-19T03:06:23;37.90;;;31.20;;
18140;SDS011;9196;49.194;12.526;2022-08-19T03:08:50;36.00;;;32.10;;
18140;SDS011;9196;49.194;12.526;2022-08-19T03:11:19;34.40;;;31.00;;
18140;SDS011;9196;49.194;12.526;2022-08-19T03:13:48;33.97;;;30.37;;
18140;SDS011;9196;49.194;12.526;2022-08-19T03:16:16;37.77;;;33.87;;
18140;SDS011;9196;49.194;12.526;2022-08-19T03:18:44;36.90;;;32.33;;
18140;SDS011;9196;49.194;12.526;2022-08-19T03:21:14;37.23;;;32.87;;
18140;SDS011;9196;49.194;12.526;2022-08-19T03:23:43;35.87;;;31.97;;
18140;SDS011;9196;49.194;12.526;2022-08-19T03:26:11;37.97;;;32.40;;
18140;SDS011;9196;49.194;12.526;2022-08-19T03:28:39;37.50;;;33.60;;
18140;SDS011;9196;49.194;12.526;2022-08-19T03:31:07;33.07;;;29.53;;
18140;SDS011;9196;49.194;12.526;2022-08-19T03:33:37;36.10;;;29.70;;
18140;SDS011;9196;49.194;12.526;2022-08-19T03:36:06;35.03;;;30.87;;
18140;SDS011;9196;49.194;12.526;2022-08-19T03:38:35;40.43;;;34.10;;
18140;SDS011;9196;49.194;12.526;2022-08-19T03:41:05;37.80;;;33.27;;
18140;SDS011;9196;49.194;12.526;2022-08-19T03:43:34;45.90;;;36.00;;
18140;SDS011;9196;49.194;12.526;2022-08-19T03:46:02;39.83;;;33.10;;
18140;SDS011;9196;49.194;12.526;2022-08-19T03:48:31;39.17;;;31.60;;
18140;SDS011;9196;49.194;12.526;2022-08-19T03:50:59;38.93;;;32.40;;
18140;SDS011;9196;49.194;12.526;2022-08-19T03:53:27;40.47;;;34.87;;
18140;SDS011;9196;49.194;12.526;2022-08-19T03:55:55;41.70;;;33.90;;
18140;SDS011;9196;49.194;12.526;2022-08-19T03:58:24;41.10;;;35.13;;
18140;SDS011;9196;49.194;12.526;2022-08-19T04:00:52;39.17;;;34.97;;
18140;SDS011;9196;49.194;12.526;2022-08-19T04:03:19;40.77;;;36.13;;
18140;SDS011;9196;49.194;12.526;2022-08-19T04:05:46;40.33;;;34.73;;
18140;SDS011;9196;49.194;12.526;2022-08-19T04:08:13;40.70;;;34.47;;
18140;SDS011;9196;49.194;12.526;2022-08-19T04:10:45;38.03;;;33.37;;
18140;SDS011;9196;49.194;12.526;2022-08-19T04:13:12;37.67;;;33.87;;
18140;SDS011;9196;49.194;12.526;2022-08-19T04:15:41;38.33;;;34.23;;
18140;SDS011;9196;49.194;12.526;2022-08-19T04:18:11;42.00;;;34.03;;
18140;SDS011;9196;49.194;12.526;2022-08-19T04:20:42;39.10;;;34.90;;
18140;SDS011;9196;49.194;12.526;2022-08-19T04:23:12;40.43;;;33.87;;
18140;SDS011;9196;49.194;12.526;2022-08-19T04:25:40;37.93;;;32.73;;
18140;SDS011;9196;49.194;12.526;2022-08-19T04:28:09;37.60;;;33.90;;
18140;SDS011;9196;49.194;12.526;2022-08-19T04:30:38;38.90;;;34.33;;
18140;SDS011;9196;49.194;12.526;2022-08-19T04:33:09;44.03;;;34.10;;
18140;SDS011;9196;49.194;12.526;2022-08-19T04:35:38;37.67;;;32.90;;
18140;SDS011;9196;49.194;12.526;2022-08-19T04:38:07;35.20;;;31.50;;
18140;SDS011;9196;49.194;12.526;2022-08-19T04:40:34;40.63;;;34.07;;
18140;SDS011;9196;49.194;12.526;2022-08-19T04:43:23;37.20;;;31.80;;
18140;SDS011;9196;49.194;12.526;2022-08-19T04:45:52;35.13;;;31.37;;
18140;SDS011;9196;49.194;12.526;2022-08-19T04:48:22;38.00;;;32.13;;
18140;SDS011;9196;49.194;12.526;2022-08-19T04:50:51;35.30;;;31.50;;
18140;SDS011;9196;49.194;12.526;2022-08-19T04:53:22;39.97;;;34.67;;
18140;SDS011;9196;49.194;12.526;2022-08-19T04:55:49;37.20;;;32.27;;
18140;SDS011;9196;49.194;12.526;2022-08-19T04:58:16;33.47;;;30.17;;
18140;SDS011;9196;49.194;12.526;2022-08-19T05:00:43;36.33;;;30.10;;
18140;SDS011;9196;49.194;12.526;2022-08-19T05:03:11;38.73;;;32.50;;
18140;SDS011;9196;49.194;12.526;2022-08-19T05:05:44;44.97;;;32.30;;
18140;SDS011;9196;49.194;12.526;2022-08-19T05:08:14;32.03;;;28.73;;
18140;SDS011;9196;49.194;12.526;2022-08-19T05:10:45;31.77;;;28.37;;
18140;SDS011;9196;49.194;12.526;2022-08-19T05:13:14;33.97;;;30.47;;
18140;SDS011;9196;49.194;12.526;2022-08-19T05:15:42;32.47;;;29.07;;
18140;SDS011;9196;49.194;12.526;2022-08-19T05:18:09;32.77;;;29.50;;
18140;SDS011;9196;49.194;12.526;2022-08-19T05:20:56;38.40;;;31.20;;
18140;SDS011;9196;49.194;12.526;2022-08-19T05:23:40;37.20;;;31.90;;
18140;SDS011;9196;49.194;12.526;2022-08-19T05:26:15;36.07;;;32.20;;
18140;SDS011;9196;49.194;12.526;2022-08-19T05:28:42;35.40;;;30.80;;
18140;SDS011;9196;49.194;12.526;2022-08-19T05:31:09;36.43;;;32.83;;
18140;SDS011;9196;49.194;12.526;2022-08-19T05:33:38;35.53;;;30.70;;
18140;SDS011;9196;49.194;12.526;2022-08-19T05:36:05;38.00;;;31.03;;
18140;SDS011;9196;49.194;12.526;2022-08-19T05:38:33;40.80;;;33.80;;
18140;SDS011;9196;49.194;12.526;2022-08-19T05:41:01;35.40;;;30.40;;
18140;SDS011;9196;49.194;12.526;2022-08-19T05:43:33;30.47;;;27.27;;
18140;SDS011;9196;49.194;12.526;2022-08-19T05:46:00;33.80;;;30.30;;
18140;SDS011;9196;49.194;12.526;2022-08-19T05:48:26;31.40;;;28.20;;
18140;SDS011;9196;49.194;12.526;2022-08-19T05:50:55;32.90;;;28.97;;
18140;SDS011;9196;49.194;12.526;2022-08-19T05:53:23;36.17;;;29.37;;
18140;SDS011;9196;49.194;12.526;2022-08-19T05:55:50;34.33;;;30.13;;
18140;SDS011;9196;49.194;12.526;2022-08-19T05:58:17;33.03;;;26.67;;
18140;SDS011;9196;49.194;12.526;2022-08-19T06:00:44;30.40;;;26.47;;
18140;SDS011;9196;49.194;12.526;2022-08-19T06:03:10;29.93;;;26.53;;
18140;SDS011;9196;49.194;12.526;2022-08-19T06:05:37;27.00;;;23.67;;
18140;SDS011;9196;49.194;12.526;2022-08-19T06:08:06;26.37;;;23.67;;
18140;SDS011;9196;49.194;12.526;2022-08-19T06:10:33;25.53;;;22.83;;
18140;SDS011;9196;49.194;12.526;2022-08-19T06:13:01;25.47;;;22.80;;
18140;SDS011;9196;49.194;12.526;2022-08-19T06:15:30;30.40;;;24.93;;
18140;SDS011;9196;49.194;12.526;2022-08-19T06:17:57;28.30;;;25.23;;
18140;SDS011;9196;49.194;12.526;2022-08-19T06:20:24;29.60;;;26.70;;
18140;SDS011;9196;49.194;12.526;2022-08-19T06:22:51;27.43;;;24.43;;
18140;SDS011;9196;49.194;12.526;2022-08-19T06:25:20;28.27;;;25.37;;
18140;SDS011;9196;49.194;12.526;2022-08-19T06:27:47;25.57;;;23.07;;
18140;SDS011;9196;49.194;12.526;2022-08-19T06:30:14;27.93;;;25.23;;
18140;SDS011;9196;49.194;12.526;2022-08-19T06:32:41;23.57;;;21.17;;
18140;SDS011;9196;49.194;12.526;2022-08-19T06:35:08;23.50;;;21.10;;
18140;SDS011;9196;49.194;12.526;2022-08-19T06:37:36;24.10;;;21.43;;
18140;SDS011;9196;49.194;12.526;2022-08-19T06:40:04;29.33;;;26.40;;
18140;SDS011;9196;49.194;12.526;2022-08-19T06:42:34;31.83;;;27.37;;
18140;SDS011;9196;49.194;12.526;2022-08-19T06:45:03;40.80;;;26.03;;
18140;SDS011;9196;49.194;12.526;2022-08-19T06:47:33;28.67;;;25.67;;
18140;SDS011;9196;49.194;12.526;2022-08-19T06:50:01;27.67;;;24.87;;
18140;SDS011;9196;49.194;12.526;2022-08-19T06:52:29;29.77;;;26.30;;
18140;SDS011;9196;49.194;12.526;2022-08-19T06:54:57;30.00;;;26.77;;
18140;SDS011;9196;49.194;12.526;2022-08-19T06:57:24;27.80;;;25.20;;
18140;SDS011;9196;49.194;12.526;2022-08-19T06:59:53;28.73;;;25.70;;
18140;SDS011;9196;49.194;12.526;2022-08-19T07:02:21;30.17;;;27.20;;
18140;SDS011;9196;49.194;12.526;2022-08-19T07:04:51;30.97;;;25.80;;
18140;SDS011;9196;49.194;12.526;2022-08-19T07:07:18;27.10;;;24.20;;
18140;SDS011;9196;49.194;12.526;2022-08-19T07:09:47;28.63;;;24.57;;
18140;SDS011;9196;49.194;12.526;2022-08-19T07:12:15;29.00;;;25.90;;
18140;SDS011;9196;49.194;12.526;2022-08-19T07:14:42;29.90;;;26.83;;
18140;SDS011;9196;49.194;12.526;2022-08-19T07:17:12;27.83;;;24.53;;
18140;SDS011;9196;49.194;12.526;2022-08-19T07:19:39;28.73;;;25.80;;
18140;SDS011;9196;49.194;12.526;2022-08-19T07:22:07;25.57;;;23.00;;
18140;SDS011;9196;49.194;12.526;2022-08-19T07:24:35;27.87;;;24.87;;
18140;SDS011;9196;49.194;12.526;2022-08-19T07:27:04;32.87;;;26.20;;
18140;SDS011;9196;49.194;12.526;2022-08-19T07:29:33;30.83;;;27.53;;
18140;SDS011;9196;49.194;12.526;2022-08-19T07:32:01;31.10;;;26.67;;
18140;SDS011;9196;49.194;12.526;2022-08-19T07:34:31;32.50;;;25.90;;
18140;SDS011;9196;49.194;12.526;2022-08-19T07:37:02;30.80;;;27.70;;
18140;SDS011;9196;49.194;12.526;2022-08-19T07:39:30;26.87;;;23.93;;
18140;SDS011;9196;49.194;12.526;2022-08-19T07:41:59;29.80;;;25.83;;
18140;SDS011;9196;49.194;12.526;2022-08-19T07:44:28;28.00;;;24.73;;
18140;SDS011;9196;49.194;12.526;2022-08-19T07:46:56;24.13;;;21.77;;
18140;SDS011;9196;49.194;12.526;2022-08-19T07:49:25;24.20;;;21.70;;
18140;SDS011;9196;49.194;12.526;2022-08-19T07:51:55;29.40;;;26.30;;
18140;SDS011;9196;49.194;12.526;2022-08-19T07:54:25;30.77;;;25.10;;
18140;SDS011;9196;49.194;12.526;2022-08-19T07:56:53;26.87;;;24.17;;
18140;SDS011;9196;49.194;12.526;2022-08-19T07:59:20;28.27;;;25.37;;
18140;SDS011;9196;49.194;12.526;2022-08-19T08:01:47;29.43;;;26.10;;
18140;SDS011;9196;49.194;12.526;2022-08-19T08:04:15;29.80;;;26.87;;
18140;SDS011;9196;49.194;12.526;2022-08-19T08:07:01;26.07;;;23.37;;
18140;SDS011;9196;49.194;12.526;2022-08-19T08:09:45;26.53;;;23.83;;
18140;SDS011;9196;49.194;12.526;2022-08-19T08:12:12;27.67;;;23.20;;
18140;SDS011;9196;49.194;12.526;2022-08-19T08:14:44;26.73;;;24.03;;
18140;SDS011;9196;49.194;12.526;2022-08-19T08:17:13;30.70;;;23.37;;
18140;SDS011;9196;49.194;12.526;2022-08-19T08:19:42;22.93;;;20.50;;
18140;SDS011;9196;49.194;12.526;2022-08-19T08:22:11;28.63;;;25.63;;
18140;SDS011;9196;49.194;12.526;2022-08-19T08:25:10;27.20;;;24.30;;
18140;SDS011;9196;49.194;12.526;2022-08-19T08:27:40;24.77;;;22.47;;
18140;SDS011;9196;49.194;12.526;2022-08-19T08:30:08;25.47;;;22.23;;
18140;SDS011;9196;49.194;12.526;2022-08-19T08:32:37;25.83;;;23.10;;
18140;SDS011;9196;49.194;12.526;2022-08-19T08:35:05;25.20;;;19.57;;
18140;SDS011;9196;49.194;12.526;2022-08-19T08:37:36;27.93;;;24.27;;
18140;SDS011;9196;49.194;12.526;2022-08-19T08:40:04;24.17;;;20.50;;
18140;SDS011;9196;49.194;12.526;2022-08-19T08:42:34;24.13;;;21.50;;
18140;SDS011;9196;49.194;12.526;2022-08-19T08:45:08;25.00;;;22.33;;
18140;SDS011;9196;49.194;12.526;2022-08-19T08:47:40;27.27;;;24.37;;
18140;SDS011;9196;49.194;12.526;2022-08-19T08:50:17;24.20;;;21.70;;
18140;SDS011;9196;49.194;12.526;2022-08-19T08:52:50;26.30;;;23.50;;
18140;SDS011;9196;49.194;12.526;2022-08-19T08:55:23;21.30;;;19.17;;
18140;SDS011;9196;49.194;12.526;2022-08-19T08:57:52;17.93;;;16.23;;
18140;SDS011;9196;49.194;12.526;2022-08-19T09:00:23;24.87;;;17.70;;
18140;SDS011;9196;49.194;12.526;2022-08-19T09:02:52;19.73;;;17.70;;
18140;SDS011;9196;49.194;12.526;2022-08-19T09:05:20;19.50;;;17.57;;
18140;SDS011;9196;49.194;12.526;2022-08-19T09:07:52;18.20;;;16.40;;
18140;SDS011;9196;49.194;12.526;2022-08-19T09:10:27;17.07;;;15.40;;
18140;SDS011;9196;49.194;12.526;2022-08-19T09:12:59;16.10;;;14.50;;
18140;SDS011;9196;49.194;12.526;2022-08-19T09:15:34;16.27;;;14.60;;
18140;SDS011;9196;49.194;12.526;2022-08-19T09:18:10;16.53;;;14.90;;
18140;SDS011;9196;49.194;12.526;2022-08-19T09:20:38;17.27;;;15.47;;
18140;SDS011;9196;49.194;12.526;2022-08-19T09:23:06;16.77;;;15.17;;
18140;SDS011;9196;49.194;12.526;2022-08-19T09:25:33;17.53;;;15.77;;
18140;SDS011;9196;49.194;12.526;2022-08-19T09:28:00;14.10;;;12.80;;
18140;SDS011;9196;49.194;12.526;2022-08-19T09:30:29;16.67;;;15.07;;
18140;SDS011;9196;49.194;12.526;2022-08-19T09:32:57;14.70;;;13.40;;
18140;SDS011;9196;49.194;12.526;2022-08-19T09:35:25;17.13;;;15.53;;
18140;SDS011;9196;49.194;12.526;2022-08-19T09:37:53;18.30;;;16.50;;
18140;SDS011;9196;49.194;12.526;2022-08-19T09:40:23;16.93;;;15.40;;
18140;SDS011;9196;49.194;12.526;2022-08-19T09:42:50;17.70;;;15.87;;
18140;SDS011;9196;49.194;12.526;2022-08-19T09:45:19;19.47;;;17.37;;
18140;SDS011;9196;49.194;12.526;2022-08-19T09:47:47;20.70;;;18.47;;
18140;SDS011;9196;49.194;12.526;2022-08-19T09:50:16;18.57;;;16.77;;
18140;SDS011;9196;49.194;12.526;2022-08-19T09:52:43;18.87;;;16.30;;
18140;SDS011;9196;49.194;12.526;2022-08-19T09:55:10;18.87;;;17.03;;
18140;SDS011;9196;49.194;12.526;2022-08-19T09:57:38;18.50;;;16.60;;
18140;SDS011;9196;49.194;12.526;2022-08-19T10:00:06;18.77;;;15.40;;
18140;SDS011;9196;49.194;12.526;2022-08-19T10:02:35;15.10;;;13.60;;
18140;SDS011;9196;49.194;12.526;2022-08-19T10:05:02;16.00;;;13.50;;
18140;SDS011;9196;49.194;12.526;2022-08-19T10:07:46;15.13;;;13.67;;
18140;SDS011;9196;49.194;12.526;2022-08-19T10:10:13;14.73;;;13.23;;
18140;SDS011;9196;49.194;12.526;2022-08-19T10:12:41;18.10;;;13.80;;
18140;SDS011;9196;49.194;12.526;2022-08-19T10:15:13;14.80;;;13.40;;
18140;SDS011;9196;49.194;12.526;2022-08-19T10:17:41;17.77;;;16.07;;
18140;SDS011;9196;49.194;12.526;2022-08-19T10:20:09;15.03;;;13.40;;
18140;SDS011;9196;49.194;12.526;2022-08-19T10:22:36;14.37;;;12.90;;
18140;SDS011;9196;49.194;12.526;2022-08-19T10:25:04;21.80;;;13.90;;
18140;SDS011;9196;49.194;12.526;2022-08-19T10:27:32;16.27;;;13.47;;
18140;SDS011;9196;49.194;12.526;2022-08-19T10:30:00;15.90;;;14.30;;
18140;SDS011;9196;49.194;12.526;2022-08-19T10:32:27;17.47;;;15.83;;
18140;SDS011;9196;49.194;12.526;2022-08-19T10:34:54;19.10;;;13.87;;
18140;SDS011;9196;49.194;12.526;2022-08-19T10:37:22;19.83;;;13.57;;
18140;SDS011;9196;49.194;12.526;2022-08-19T10:39:49;21.20;;;14.37;;
18140;SDS011;9196;49.194;12.526;2022-08-19T10:42:16;21.67;;;12.27;;
18140;SDS011;9196;49.194;12.526;2022-08-19T10:44:44;14.63;;;12.30;;
18140;SDS011;9196;49.194;12.526;2022-08-19T10:47:14;18.20;;;13.37;;
18140;SDS011;9196;49.194;12.526;2022-08-19T10:49:41;26.07;;;12.53;;
18140;SDS011;9196;49.194;12.526;2022-08-19T10:52:25;13.30;;;11.67;;
18140;SDS011;9196;49.194;12.526;2022-08-19T10:55:01;17.93;;;12.27;;
18140;SDS011;9196;49.194;12.526;2022-08-19T10:57:43;14.63;;;11.00;;
18140;SDS011;9196;49.194;12.526;2022-08-19T11:00:11;21.47;;;12.83;;
18140;SDS011;9196;49.194;12.526;2022-08-19T11:02:40;12.17;;;10.47;;
18140;SDS011;9196;49.194;12.526;2022-08-19T11:05:07;14.30;;;11.50;;
18140;SDS011;9196;49.194;12.526;2022-08-19T11:07:36;20.20;;;11.63;;
18140;SDS011;9196;49.194;12.526;2022-08-19T11:10:03;13.00;;;11.63;;
18140;SDS011;9196;49.194;12.526;2022-08-19T11:12:31;11.40;;;9.77;;
18140;SDS011;9196;49.194;12.526;2022-08-19T11:14:58;11.63;;;9.73;;
18140;SDS011;9196;49.194;12.526;2022-08-19T11:17:24;12.33;;;11.03;;
18140;SDS011;9196;49.194;12.526;2022-08-19T11:19:53;10.53;;;9.63;;
18140;SDS011;9196;49.194;12.526;2022-08-19T11:22:19;11.63;;;10.53;;
18140;SDS011;9196;49.194;12.526;2022-08-19T11:24:46;11.47;;;10.30;;
18140;SDS011;9196;49.194;12.526;2022-08-19T11:27:13;10.57;;;9.63;;
18140;SDS011;9196;49.194;12.526;2022-08-19T11:29:40;12.40;;;11.23;;
18140;SDS011;9196;49.194;12.526;2022-08-19T11:32:07;10.63;;;9.63;;
18140;SDS011;9196;49.194;12.526;2022-08-19T11:34:36;11.13;;;10.13;;
18140;SDS011;9196;49.194;12.526;2022-08-19T11:37:05;10.13;;;9.33;;
18140;SDS011;9196;49.194;12.526;2022-08-19T11:39:34;10.60;;;9.80;;
18140;SDS011;9196;49.194;12.526;2022-08-19T11:42:02;10.53;;;9.43;;
18140;SDS011;9196;49.194;12.526;2022-08-19T11:44:50;10.47;;;9.43;;
18140;SDS011;9196;49.194;12.526;2022-08-19T11:47:17;11.87;;;9.03;;
18140;SDS011;9196;49.194;12.526;2022-08-19T11:49:45;10.07;;;9.27;;
18140;SDS011;9196;49.194;12.526;2022-08-19T11:52:13;10.10;;;9.23;;
18140;SDS011;9196;49.194;12.526;2022-08-19T11:54:40;11.73;;;10.60;;
18140;SDS011;9196;49.194;12.526;2022-08-19T11:57:06;10.60;;;9.70;;
18140;SDS011;9196;49.194;12.526;2022-08-19T11:59:33;12.03;;;9.97;;
18140;SDS011;9196;49.194;12.526;2022-08-19T12:02:00;13.67;;;9.30;;
18140;SDS011;9196;49.194;12.526;2022-08-19T12:04:27;11.57;;;10.47;;
18140;SDS011;9196;49.194;12.526;2022-08-19T12:06:54;9.37;;;8.53;;
18140;SDS011;9196;49.194;12.526;2022-08-19T12:09:22;9.97;;;9.07;;
18140;SDS011;9196;49.194;12.526;2022-08-19T12:11:48;9.47;;;8.57;;
18140;SDS011;9196;49.194;12.526;2022-08-19T12:14:16;9.73;;;8.70;;
18140;SDS011;9196;49.194;12.526;2022-08-19T12:16:43;8.43;;;7.73;;
18140;SDS011;9196;49.194;12.526;2022-08-19T12:19:11;8.67;;;7.93;;
18140;SDS011;9196;49.194;12.526;2022-08-19T12:21:38;10.83;;;9.17;;
18140;SDS011;9196;49.194;12.526;2022-08-19T12:24:05;9.07;;;8.17;;
18140;SDS011;9196;49.194;12.526;2022-08-19T12:26:34;9.57;;;8.77;;
18140;SDS011;9196;49.194;12.526;2022-08-19T12:29:02;13.90;;;12.60;;
18140;SDS011;9196;49.194;12.526;2022-08-19T12:31:29;11.50;;;10.40;;
18140;SDS011;9196;49.194;12.526;2022-08-19T12:33:56;12.63;;;8.90;;
18140;SDS011;9196;49.194;12.526;2022-08-19T12:36:23;10.00;;;9.17;;
18140;SDS011;9196;49.194;12.526;2022-08-19T12:38:50;8.17;;;7.37;;
18140;SDS011;9196;49.194;12.526;2022-08-19T12:41:18;10.10;;;8.87;;
18140;SDS011;9196;49.194;12.526;2022-08-19T12:43:48;8.50;;;7.90;;
18140;SDS011;9196;49.194;12.526;2022-08-19T12:46:15;8.57;;;7.87;;
18140;SDS011;9196;49.194;12.526;2022-08-19T12:48:43;10.23;;;7.30;;
18140;SDS011;9196;49.194;12.526;2022-08-19T12:51:12;7.83;;;7.20;;
18140;SDS011;9196;49.194;12.526;2022-08-19T12:53:40;7.63;;;6.93;;
18140;SDS011;9196;49.194;12.526;2022-08-19T12:56:08;7.23;;;6.53;;
18140;SDS011;9196;49.194;12.526;2022-08-19T12:58:37;7.60;;;6.90;;
18140;SDS011;9196;49.194;12.526;2022-08-19T13:01:08;7.50;;;6.80;;
18140;SDS011;9196;49.194;12.526;2022-08-19T13:03:36;7.87;;;7.13;;
18140;SDS011;9196;49.194;12.526;2022-08-19T13:06:03;10.30;;;7.87;;
18140;SDS011;9196;49.194;12.526;2022-08-19T13:08:30;17.40;;;11.97;;
18140;SDS011;9196;49.194;12.526;2022-08-19T13:10:57;8.23;;;7.47;;
18140;SDS011;9196;49.194;12.526;2022-08-19T13:13:32;8.30;;;7.43;;
18140;SDS011;9196;49.194;12.526;2022-08-19T13:15:59;7.57;;;6.87;;
18140;SDS011;9196;49.194;12.526;2022-08-19T13:18:29;10.00;;;8.00;;
18140;SDS011;9196;49.194;12.526;2022-08-19T13:20:56;9.17;;;8.47;;
18140;SDS011;9196;49.194;12.526;2022-08-19T13:23:23;10.53;;;9.53;;
18140;SDS011;9196;49.194;12.526;2022-08-19T13:25:55;11.23;;;10.23;;
18140;SDS011;9196;49.194;12.526;2022-08-19T13:28:23;12.80;;;11.60;;
18140;SDS011;9196;49.194;12.526;2022-08-19T13:30:50;12.13;;;10.83;;
18140;SDS011;9196;49.194;12.526;2022-08-19T13:33:35;16.37;;;13.40;;
18140;SDS011;9196;49.194;12.526;2022-08-19T13:36:02;15.90;;;12.87;;
18140;SDS011;9196;49.194;12.526;2022-08-19T13:38:32;19.83;;;14.37;;
18140;SDS011;9196;49.194;12.526;2022-08-19T13:41:03;17.30;;;15.33;;
18140;SDS011;9196;49.194;12.526;2022-08-19T13:43:31;16.33;;;14.63;;
18140;SDS011;9196;49.194;12.526;2022-08-19T13:45:59;16.27;;;13.83;;
18140;SDS011;9196;49.194;12.526;2022-08-19T13:48:34;17.90;;;14.60;;
18140;SDS011;9196;49.194;12.526;2022-08-19T13:51:04;17.40;;;14.07;;
18140;SDS011;9196;49.194;12.526;2022-08-19T13:53:31;15.60;;;13.50;;
18140;SDS011;9196;49.194;12.526;2022-08-19T13:55:58;14.70;;;13.20;;
18140;SDS011;9196;49.194;12.526;2022-08-19T13:58:25;19.30;;;14.53;;
18140;SDS011;9196;49.194;12.526;2022-08-19T14:00:51;22.00;;;15.07;;
18140;SDS011;9196;49.194;12.526;2022-08-19T14:03:18;15.47;;;13.00;;
18140;SDS011;9196;49.194;12.526;2022-08-19T14:05:47;14.77;;;13.27;;
18140;SDS011;9196;49.194;12.526;2022-08-19T14:08:13;14.97;;;13.40;;
18140;SDS011;9196;49.194;12.526;2022-08-19T14:10:40;14.53;;;12.70;;
18140;SDS011;9196;49.194;12.526;2022-08-19T14:13:09;22.23;;;13.57;;
18140;SDS011;9196;49.194;12.526;2022-08-19T14:15:37;16.67;;;13.67;;
18140;SDS011;9196;49.194;12.526;2022-08-19T14:18:04;17.73;;;13.80;;
18140;SDS011;9196;49.194;12.526;2022-08-19T14:20:33;14.33;;;12.40;;
18140;SDS011;9196;49.194;12.526;2022-08-19T14:23:01;15.40;;;13.80;;
18140;SDS011;9196;49.194;12.526;2022-08-19T14:25:30;15.13;;;12.27;;
18140;SDS011;9196;49.194;12.526;2022-08-19T14:27:57;14.87;;;12.87;;
18140;SDS011;9196;49.194;12.526;2022-08-19T14:30:25;16.13;;;14.20;;
18140;SDS011;9196;49.194;12.526;2022-08-19T14:32:53;13.77;;;12.37;;